Terminal Aerodrome Forecast
Issued by NWS

Home | Current Version | Previous Version | Graphics & Text | Print | Product List | Glossary On
Versions: 1 2 3 4 5 6 7 8 9 10 11 12 13 14 15 16 17 18 19 20 21 22 23 24 25 26 27
395
FTUS43 KLOT 300904 AAB
TAFDPA
TAF AMD
KDPA 300904Z 3009/3106 VRB02KT 2SM BR FEW100 SCT200
     FM301000 26010KT 3SM -TSRA SCT005 BKN050CB
     FM301200 26004KT 2SM BR BKN120
     FM301500 26005KT P6SM SCT040 BKN080
     FM301800 26008KT P6SM VCSH BKN035 PROB30 3018/3024 2SM TSRA
      SCT020 OVC030CB
     FM310000 27005KT P6SM SCT040 BKN180=

USA.gov is the U.S. government's official web portal to all federal, state and local government web resources and services.